createdAt,value
2023-02-13T00:00:23.165Z,25.25
2023-02-13T00:02:50.880Z,25.33
2023-02-13T00:05:19.199Z,25.48
2023-02-13T00:07:48.307Z,25.40
2023-02-13T00:10:16.003Z,25.48
2023-02-13T00:12:43.605Z,25.40
2023-02-13T00:15:11.301Z,25.52
2023-02-13T00:17:38.940Z,25.56
2023-02-13T00:20:07.300Z,25.60
2023-02-13T00:22:36.422Z,25.33
2023-02-13T00:25:05.688Z,25.43
2023-02-13T00:27:33.378Z,25.45
2023-02-13T00:30:01.093Z,25.44
2023-02-13T00:32:28.739Z,25.35
2023-02-13T00:34:56.536Z,25.51
2023-02-13T00:37:24.195Z,25.43
2023-02-13T00:39:51.906Z,25.48
2023-02-13T00:42:24.017Z,25.51
2023-02-13T00:44:51.790Z,25.62
2023-02-13T00:47:19.465Z,25.54
2023-02-13T00:49:47.150Z,25.50
2023-02-13T00:52:14.827Z,25.51
2023-02-13T00:54:42.464Z,25.57
2023-02-13T00:57:10.105Z,25.51
2023-02-13T00:59:39.139Z,25.33
2023-02-13T01:02:06.854Z,25.50
2023-02-13T01:04:34.515Z,25.51
2023-02-13T01:07:02.225Z,25.62
2023-02-13T01:09:30.326Z,25.44
2023-02-13T01:11:58.001Z,25.31
2023-02-13T01:14:25.752Z,25.25
2023-02-13T01:16:54.793Z,25.32
2023-02-13T01:19:22.551Z,25.35
2023-02-13T01:21:50.256Z,25.46
2023-02-13T01:24:17.991Z,25.52
2023-02-13T01:26:45.790Z,25.48
2023-02-13T01:29:13.492Z,25.54
2023-02-13T01:31:41.341Z,25.38
2023-02-13T01:34:10.456Z,25.50
2023-02-13T01:36:38.137Z,25.49
2023-02-13T01:39:05.832Z,25.52
2023-02-13T01:41:33.446Z,25.55
2023-02-13T01:44:01.600Z,25.44
2023-02-13T01:46:30.310Z,25.48
2023-02-13T01:48:59.653Z,25.57
2023-02-13T01:51:30.137Z,25.49
2023-02-13T01:53:59.747Z,25.59
2023-02-13T01:56:28.519Z,25.38
2023-02-13T01:58:57.284Z,25.56
2023-02-13T02:01:25.003Z,25.43
2023-02-13T02:03:53.554Z,25.60
2023-02-13T02:06:22.557Z,25.58
2023-02-13T02:08:51.669Z,25.53
2023-02-13T02:11:22.105Z,25.52
2023-02-13T02:13:49.798Z,25.50
2023-02-13T02:16:17.565Z,25.53
2023-02-13T02:18:45.274Z,25.22
2023-02-13T02:21:40.144Z,25.41
2023-02-13T02:24:25.453Z,25.44
2023-02-13T02:27:11.628Z,25.38
2023-02-13T02:29:48.356Z,25.54
2023-02-13T02:32:20.048Z,25.51
2023-02-13T02:34:49.946Z,25.32
2023-02-13T02:37:20.162Z,25.63
2023-02-13T02:39:49.460Z,25.48
2023-02-13T02:42:19.933Z,25.49
2023-02-13T02:44:49.949Z,25.57
2023-02-13T02:47:39.693Z,25.49
2023-02-13T02:50:12.640Z,25.41
2023-02-13T02:52:45.586Z,25.34
2023-02-13T02:55:16.630Z,25.76
2023-02-13T02:58:03.051Z,25.54
2023-02-13T03:00:48.215Z,25.44
2023-02-13T03:03:35.908Z,25.56
2023-02-13T03:06:14.004Z,25.53
2023-02-13T03:08:59.607Z,25.48
2023-02-13T03:11:44.846Z,25.54
2023-02-13T03:14:12.651Z,25.52
2023-02-13T03:16:57.641Z,25.69
2023-02-13T03:19:45.833Z,25.41
2023-02-13T03:22:20.765Z,25.53
2023-02-13T03:24:51.062Z,25.41
2023-02-13T03:27:41.574Z,25.49
2023-02-13T03:30:11.905Z,25.37
2023-02-13T03:32:40.829Z,25.48
2023-02-13T03:35:31.310Z,25.52
2023-02-13T03:37:59.449Z,25.33
2023-02-13T03:40:29.277Z,25.50
2023-02-13T03:42:57.770Z,25.46
2023-02-13T03:45:44.191Z,25.55
2023-02-13T03:48:31.967Z,25.54
2023-02-13T03:51:00.097Z,25.46
2023-02-13T03:53:28.236Z,25.39
2023-02-13T03:56:13.346Z,25.50
2023-02-13T03:59:00.160Z,25.63
2023-02-13T04:01:28.240Z,25.52
2023-02-13T04:03:58.202Z,25.55
2023-02-13T04:06:27.853Z,25.67
2023-02-13T04:08:55.484Z,25.35
2023-02-13T04:11:24.445Z,25.53
2023-02-13T04:13:55.800Z,25.42
2023-02-13T04:16:23.825Z,25.59
2023-02-13T04:18:51.625Z,25.56
2023-02-13T04:21:19.332Z,25.44
2023-02-13T04:23:48.430Z,25.51
2023-02-13T04:26:17.738Z,25.50
2023-02-13T04:28:45.358Z,25.56
2023-02-13T04:31:13.122Z,25.56
2023-02-13T04:33:40.783Z,25.45
2023-02-13T04:36:08.716Z,25.56
2023-02-13T04:38:36.345Z,25.50
2023-02-13T04:41:05.452Z,25.40
2023-02-13T04:43:33.139Z,25.40
2023-02-13T04:46:00.925Z,25.58
2023-02-13T04:48:28.633Z,25.44
2023-02-13T04:50:56.537Z,25.43
2023-02-13T04:53:24.494Z,25.44
2023-02-13T04:55:52.653Z,25.51
2023-02-13T04:58:21.715Z,25.46
2023-02-13T05:00:49.387Z,25.54
2023-02-13T05:03:17.075Z,25.54
2023-02-13T05:05:45.016Z,25.53
2023-02-13T05:08:12.690Z,25.55
2023-02-13T05:10:40.430Z,25.69
2023-02-13T05:13:08.133Z,25.49
2023-02-13T05:15:37.269Z,25.47
2023-02-13T05:18:05.121Z,25.59
2023-02-13T05:20:32.829Z,25.54
2023-02-13T05:23:17.713Z,25.58
2023-02-13T05:25:45.553Z,25.52
2023-02-13T05:28:27.189Z,25.54
2023-02-13T05:30:56.783Z,25.44
2023-02-13T05:33:24.894Z,25.43
2023-02-13T05:35:52.605Z,25.47
2023-02-13T05:38:20.302Z,25.53
2023-02-13T05:40:48.033Z,25.39
2023-02-13T05:43:15.761Z,25.33
2023-02-13T05:45:43.462Z,25.43
2023-02-13T05:48:12.481Z,25.46
2023-02-13T05:50:40.073Z,25.38
2023-02-13T05:53:07.771Z,25.58
2023-02-13T05:55:35.514Z,25.51
2023-02-13T05:58:03.195Z,25.50
2023-02-13T06:00:30.924Z,25.41
2023-02-13T06:02:58.675Z,25.48
2023-02-13T06:05:27.836Z,25.47
2023-02-13T06:07:55.519Z,25.59
2023-02-13T06:10:23.197Z,25.49
2023-02-13T06:12:50.814Z,25.49
2023-02-13T06:15:18.550Z,25.61
2023-02-13T06:17:46.310Z,25.55
2023-02-13T06:20:14.061Z,25.44
2023-02-13T06:22:43.142Z,25.55
2023-02-13T06:25:10.868Z,25.36
2023-02-13T06:27:38.554Z,25.46
2023-02-13T06:30:06.752Z,25.52
2023-02-13T06:32:34.464Z,25.40
2023-02-13T06:35:04.503Z,25.39
2023-02-13T06:37:33.120Z,25.43
2023-02-13T06:40:02.291Z,25.30
2023-02-13T06:42:30.001Z,25.28
2023-02-13T06:44:57.666Z,25.35
2023-02-13T06:47:25.424Z,25.26
2023-02-13T06:49:53.133Z,25.12
2023-02-13T06:52:20.985Z,25.27
2023-02-13T06:54:48.745Z,25.28
2023-02-13T06:57:17.913Z,25.31
2023-02-13T06:59:45.862Z,25.17
2023-02-13T07:02:13.620Z,25.46
2023-02-13T07:04:41.282Z,25.27
2023-02-13T07:07:08.942Z,25.39
2023-02-13T07:09:36.701Z,25.37
2023-02-13T07:12:04.698Z,25.35
2023-02-13T07:14:33.831Z,25.27
2023-02-13T07:17:01.586Z,25.32
2023-02-13T07:19:29.278Z,25.17
2023-02-13T07:21:57.058Z,25.24
2023-02-13T07:24:24.780Z,25.15
2023-02-13T07:26:52.466Z,25.26
2023-02-13T07:29:20.208Z,24.98
2023-02-13T07:31:49.365Z,25.12
2023-02-13T07:34:17.111Z,25.07
2023-02-13T07:36:44.767Z,25.32
2023-02-13T07:39:12.464Z,25.30
2023-02-13T07:41:40.554Z,25.24
2023-02-13T07:44:08.314Z,25.11
2023-02-13T07:46:36.079Z,25.07
2023-02-13T07:49:05.538Z,25.18
2023-02-13T07:51:33.268Z,25.14
2023-02-13T07:54:01.253Z,25.13
2023-02-13T07:56:28.974Z,25.22
2023-02-13T07:58:56.603Z,25.14
2023-02-13T08:01:24.870Z,25.12
2023-02-13T08:03:52.740Z,25.07
2023-02-13T08:06:22.417Z,25.34
2023-02-13T08:09:10.028Z,25.00
2023-02-13T08:11:54.856Z,25.14
2023-02-13T08:14:23.200Z,25.09
2023-02-13T08:16:51.273Z,25.23
2023-02-13T08:19:19.866Z,25.18
2023-02-13T08:21:49.671Z,25.12
2023-02-13T08:24:17.364Z,25.13
2023-02-13T08:26:46.811Z,25.37
2023-02-13T08:29:14.457Z,25.06
2023-02-13T08:31:42.666Z,25.05
2023-02-13T08:34:10.381Z,25.04
2023-02-13T08:36:38.612Z,25.30
2023-02-13T08:39:07.761Z,24.94
2023-02-13T08:41:36.246Z,25.03
2023-02-13T08:44:03.865Z,24.90
2023-02-13T08:46:32.352Z,25.00
2023-02-13T08:49:00.769Z,24.88
2023-02-13T08:51:29.121Z,25.05
2023-02-13T08:53:56.821Z,25.05
2023-02-13T08:56:26.636Z,25.10
2023-02-13T08:58:55.042Z,25.12
2023-02-13T09:01:24.029Z,24.96
2023-02-13T09:03:52.666Z,24.69
2023-02-13T09:06:20.347Z,24.85
2023-02-13T09:08:48.741Z,24.92
2023-02-13T09:11:16.424Z,24.75
2023-02-13T09:13:48.862Z,24.87
2023-02-13T09:16:16.726Z,24.83
2023-02-13T09:18:45.663Z,24.93
2023-02-13T09:21:13.773Z,24.77
2023-02-13T09:23:42.266Z,24.72
2023-02-13T09:26:10.571Z,24.93
2023-02-13T09:28:39.107Z,24.74
2023-02-13T09:31:08.759Z,24.91
2023-02-13T09:33:37.223Z,24.66
2023-02-13T09:36:05.573Z,24.71
2023-02-13T09:38:33.944Z,24.70
2023-02-13T09:41:01.886Z,24.67
2023-02-13T09:43:31.142Z,24.76
2023-02-13T09:46:00.467Z,24.90
2023-02-13T09:48:32.744Z,24.77
2023-02-13T09:51:00.506Z,24.97
2023-02-13T09:53:29.251Z,24.81
2023-02-13T09:56:00.620Z,24.70
2023-02-13T09:58:36.935Z,24.80
2023-02-13T10:01:04.789Z,25.09
2023-02-13T10:03:33.990Z,24.91
2023-02-13T10:06:05.523Z,24.89
2023-02-13T10:08:35.984Z,24.97
2023-02-13T10:11:05.945Z,24.80
2023-02-13T10:13:41.039Z,24.74
2023-02-13T10:16:10.218Z,24.90
2023-02-13T10:18:43.402Z,24.90
2023-02-13T10:21:11.749Z,24.86
2023-02-13T10:23:40.683Z,24.73
2023-02-13T10:26:09.305Z,24.80
2023-02-13T10:28:38.654Z,24.75
2023-02-13T10:31:07.844Z,24.83
2023-02-13T10:33:36.352Z,24.78
2023-02-13T10:36:06.937Z,24.87
2023-02-13T10:38:35.972Z,24.83
2023-02-13T10:41:11.759Z,24.66
2023-02-13T10:43:41.153Z,24.75
2023-02-13T10:46:14.885Z,24.77
2023-02-13T10:48:47.612Z,24.81
2023-02-13T10:51:18.376Z,24.63
2023-02-13T10:53:50.881Z,24.77
2023-02-13T10:56:28.405Z,24.54
2023-02-13T10:59:00.649Z,24.69
2023-02-13T11:01:31.340Z,24.72
2023-02-13T11:04:04.204Z,24.58
2023-02-13T11:06:33.368Z,24.88
2023-02-13T11:09:01.907Z,24.55
2023-02-13T11:11:29.766Z,24.50
2023-02-13T11:14:09.467Z,24.72
2023-02-13T11:16:44.516Z,24.56
2023-02-13T11:19:19.686Z,24.57
2023-02-13T11:21:49.007Z,24.77
2023-02-13T11:24:21.152Z,24.64
2023-02-13T11:26:51.173Z,24.63
2023-02-13T11:29:19.548Z,24.57
2023-02-13T11:31:48.015Z,24.54
2023-02-13T11:34:19.549Z,24.65
2023-02-13T11:36:49.186Z,24.61
2023-02-13T11:39:19.060Z,24.69
2023-02-13T11:41:47.090Z,24.52
2023-02-13T11:44:22.576Z,24.47
2023-02-13T11:46:50.679Z,24.36
2023-02-13T11:49:21.269Z,24.48
2023-02-13T11:51:50.487Z,24.32
2023-02-13T11:54:29.639Z,24.66
2023-02-13T11:57:05.894Z,24.39
2023-02-13T11:59:35.429Z,24.35
2023-02-13T12:02:03.684Z,24.43
2023-02-13T12:04:32.084Z,24.42
2023-02-13T12:07:02.193Z,24.40
2023-02-13T12:09:30.987Z,24.51
2023-02-13T12:12:06.418Z,24.40
2023-02-13T12:14:38.982Z,24.60
2023-02-13T12:17:07.134Z,24.41
2023-02-13T12:19:36.239Z,24.35
2023-02-13T12:22:15.048Z,24.50
2023-02-13T12:25:05.598Z,24.36
2023-02-13T12:27:34.793Z,24.41
2023-02-13T12:30:10.393Z,24.38
2023-02-13T12:32:40.317Z,24.62
2023-02-13T12:35:16.961Z,24.40
2023-02-13T12:37:55.909Z,24.38
2023-02-13T12:40:39.146Z,24.40
2023-02-13T12:43:15.185Z,24.62
2023-02-13T12:45:45.658Z,24.63
2023-02-13T12:48:18.840Z,24.42
2023-02-13T12:50:55.648Z,24.69
2023-02-13T12:53:29.633Z,24.47
2023-02-13T12:56:10.685Z,24.43
2023-02-13T12:58:56.104Z,24.55
2023-02-13T13:01:27.130Z,24.51
2023-02-13T13:03:58.123Z,24.51
2023-02-13T13:06:44.384Z,24.42
2023-02-13T13:09:17.597Z,24.62
2023-02-13T13:11:49.030Z,24.77
2023-02-13T13:14:18.776Z,24.33
2023-02-13T13:16:49.214Z,24.39
2023-02-13T13:19:20.700Z,24.32
2023-02-13T13:21:49.901Z,24.43
2023-02-13T13:24:26.092Z,24.38
2023-02-13T13:26:54.980Z,24.57
2023-02-13T13:29:23.594Z,24.46
2023-02-13T13:31:52.420Z,24.62
2023-02-13T13:34:22.263Z,24.76
2023-02-13T13:36:50.382Z,24.68
2023-02-13T13:39:23.050Z,24.65
2023-02-13T13:41:54.512Z,24.32
2023-02-13T13:44:35.617Z,24.42
2023-02-13T13:47:05.797Z,24.52
2023-02-13T13:49:37.087Z,24.50
2023-02-13T13:52:11.620Z,24.60
2023-02-13T13:54:40.053Z,24.67
2023-02-13T13:57:09.379Z,24.69
2023-02-13T13:59:56.393Z,24.46
2023-02-13T14:02:40.482Z,24.66
2023-02-13T14:05:19.411Z,24.68
2023-02-13T14:07:47.362Z,24.69
2023-02-13T14:10:33.054Z,24.74
2023-02-13T14:13:02.688Z,24.62
2023-02-13T14:15:49.914Z,24.59
2023-02-13T14:18:20.451Z,24.84
2023-02-13T14:20:52.362Z,24.59
2023-02-13T14:23:30.048Z,24.68
2023-02-13T14:26:14.294Z,24.80
2023-02-13T14:28:43.477Z,24.61
2023-02-13T14:31:17.232Z,24.72
2023-02-13T14:33:44.971Z,24.73
2023-02-13T14:36:19.989Z,24.85
2023-02-13T14:38:50.197Z,24.91
2023-02-13T14:41:33.546Z,24.82
2023-02-13T14:44:02.583Z,24.79
2023-02-13T14:46:32.816Z,24.76
2023-02-13T14:49:02.233Z,24.69
2023-02-13T14:51:33.017Z,24.71
2023-02-13T14:54:02.766Z,24.80
2023-02-13T14:56:31.683Z,24.95
2023-02-13T14:59:01.540Z,24.95
2023-02-13T15:01:31.636Z,24.64
2023-02-13T15:04:01.274Z,24.80
2023-02-13T15:06:29.859Z,24.82
2023-02-13T15:08:58.545Z,24.80
2023-02-13T15:11:39.120Z,25.09
2023-02-13T15:14:24.099Z,24.98
2023-02-13T15:16:54.006Z,24.81
2023-02-13T15:19:22.874Z,25.21
2023-02-13T15:21:52.008Z,25.03
2023-02-13T15:24:20.434Z,25.19
2023-02-13T15:26:51.034Z,24.81
2023-02-13T15:29:35.307Z,25.07
2023-02-13T15:32:20.286Z,25.01
2023-02-13T15:34:48.923Z,25.11
2023-02-13T15:37:21.425Z,25.25
2023-02-13T15:39:50.195Z,25.04
2023-02-13T15:42:17.824Z,24.99
2023-02-13T15:44:46.636Z,25.09
2023-02-13T15:47:17.705Z,25.45
2023-02-13T15:49:48.955Z,25.16
2023-02-13T15:52:17.915Z,25.37
2023-02-13T15:54:49.501Z,25.36
2023-02-13T15:57:17.139Z,25.21
2023-02-13T15:59:44.857Z,25.48
2023-02-13T16:02:14.709Z,25.33
2023-02-13T16:04:42.487Z,25.42
2023-02-13T16:07:12.559Z,25.33
2023-02-13T16:09:40.201Z,25.51
2023-02-13T16:12:19.304Z,25.32
2023-02-13T16:14:48.550Z,25.35
2023-02-13T16:17:18.452Z,25.54
2023-02-13T16:19:47.670Z,25.33
2023-02-13T16:22:20.344Z,25.38
2023-02-13T16:24:49.284Z,25.39
2023-02-13T16:27:17.780Z,25.55
2023-02-13T16:29:46.808Z,25.51
2023-02-13T16:32:17.213Z,25.48
2023-02-13T16:34:44.958Z,25.40
2023-02-13T16:37:29.283Z,25.64
2023-02-13T16:39:58.408Z,25.82
2023-02-13T16:42:26.563Z,25.39
2023-02-13T16:45:10.308Z,25.51
2023-02-13T16:47:38.720Z,25.75
2023-02-13T16:50:14.780Z,25.77
2023-02-13T16:52:42.442Z,25.73
2023-02-13T16:55:17.324Z,25.54
2023-02-13T16:57:45.459Z,25.65
2023-02-13T17:00:20.517Z,25.86
2023-02-13T17:02:48.217Z,25.94
2023-02-13T17:05:23.533Z,25.84
2023-02-13T17:07:52.071Z,25.89
2023-02-13T17:10:21.814Z,25.68
2023-02-13T17:12:50.542Z,25.71
2023-02-13T17:15:18.661Z,25.90
2023-02-13T17:17:48.298Z,25.91
2023-02-13T17:20:17.680Z,25.80
2023-02-13T17:22:48.474Z,25.92
2023-02-13T17:25:22.550Z,25.82
2023-02-13T17:27:51.074Z,25.88
2023-02-13T17:30:19.453Z,25.81
2023-02-13T17:32:47.098Z,25.61
2023-02-13T17:35:17.437Z,26.00
2023-02-13T17:37:45.172Z,26.00
2023-02-13T17:40:16.877Z,25.83
2023-02-13T17:42:46.183Z,25.85
2023-02-13T17:45:16.369Z,25.98
2023-02-13T17:47:44.839Z,25.82
2023-02-13T17:50:14.700Z,25.99
2023-02-13T17:52:42.367Z,25.97
2023-02-13T17:55:16.689Z,25.81
2023-02-13T17:57:44.579Z,26.02
2023-02-13T18:00:17.498Z,25.84
2023-02-13T18:02:45.182Z,25.90
2023-02-13T18:05:17.441Z,25.93
2023-02-13T18:07:45.162Z,25.93
2023-02-13T18:10:14.784Z,25.75
2023-02-13T18:12:42.521Z,26.14
2023-02-13T18:15:11.380Z,25.74
2023-02-13T18:17:40.474Z,26.14
2023-02-13T18:20:09.519Z,26.00
2023-02-13T18:22:37.242Z,25.83
2023-02-13T18:25:09.441Z,26.08
2023-02-13T18:27:37.150Z,26.13
2023-02-13T18:30:06.675Z,25.91
2023-02-13T18:32:34.417Z,25.98
2023-02-13T18:35:08.482Z,25.88
2023-02-13T18:37:36.283Z,25.85
2023-02-13T18:40:04.038Z,26.00
2023-02-13T18:42:33.412Z,25.86
2023-02-13T18:45:01.124Z,26.05
2023-02-13T18:47:29.632Z,25.83
2023-02-13T18:50:03.838Z,25.96
2023-02-13T18:52:34.418Z,25.86
2023-02-13T18:55:07.003Z,25.90
2023-02-13T18:57:35.817Z,25.99
2023-02-13T19:00:03.737Z,25.77
2023-02-13T19:02:33.065Z,25.84
2023-02-13T19:05:01.967Z,25.75
2023-02-13T19:07:29.586Z,25.95
2023-02-13T19:09:59.473Z,25.86
2023-02-13T19:12:27.150Z,25.75
2023-02-13T19:14:55.973Z,25.91
2023-02-13T19:17:23.645Z,25.95
2023-02-13T19:19:51.829Z,25.93
2023-02-13T19:22:20.537Z,25.73
2023-02-13T19:24:48.212Z,25.91
2023-02-13T19:27:18.383Z,25.73
2023-02-13T19:29:46.018Z,25.86
2023-02-13T19:32:14.705Z,25.67
2023-02-13T19:34:42.393Z,25.77
2023-02-13T19:37:12.513Z,25.69
2023-02-13T19:39:40.397Z,25.72
2023-02-13T19:42:08.949Z,25.61
2023-02-13T19:44:38.017Z,25.83
2023-02-13T19:47:06.545Z,25.73
2023-02-13T19:49:35.165Z,25.77
2023-02-13T19:52:03.549Z,25.65
2023-02-13T19:54:37.729Z,25.79
2023-02-13T19:57:08.006Z,25.85
2023-02-13T19:59:35.699Z,25.57
2023-02-13T20:02:06.666Z,25.75
2023-02-13T20:04:39.524Z,25.77
2023-02-13T20:07:07.800Z,25.72
2023-02-13T20:09:42.527Z,25.57
2023-02-13T20:12:10.224Z,25.69
2023-02-13T20:14:39.608Z,25.54
2023-02-13T20:17:08.617Z,25.60
2023-02-13T20:19:36.404Z,25.69
2023-02-13T20:22:04.984Z,25.61
2023-02-13T20:24:33.066Z,25.66
2023-02-13T20:27:03.595Z,25.64
2023-02-13T20:29:31.305Z,25.81
2023-02-13T20:31:59.096Z,25.67
2023-02-13T20:34:31.580Z,25.66
2023-02-13T20:37:05.238Z,25.31
2023-02-13T20:39:34.059Z,25.65
2023-02-13T20:42:01.839Z,25.50
2023-02-13T20:44:30.370Z,25.45
2023-02-13T20:47:01.144Z,25.45
2023-02-13T20:49:31.122Z,25.31
2023-02-13T20:52:01.126Z,25.40
2023-02-13T20:54:28.854Z,25.44
2023-02-13T20:56:56.530Z,25.44
2023-02-13T20:59:25.154Z,25.43
2023-02-13T21:01:52.837Z,25.60
2023-02-13T21:04:22.061Z,25.25
2023-02-13T21:06:51.099Z,25.47
2023-02-13T21:09:18.839Z,25.52
2023-02-13T21:11:47.503Z,25.56
2023-02-13T21:14:15.196Z,25.56
2023-02-13T21:16:44.079Z,25.57
2023-02-13T21:19:13.441Z,25.36
2023-02-13T21:21:46.167Z,25.24
2023-02-13T21:24:15.510Z,25.43
2023-02-13T21:26:44.043Z,25.33
2023-02-13T21:29:11.701Z,25.59
2023-02-13T21:31:40.687Z,25.54
2023-02-13T21:34:08.901Z,25.21
2023-02-13T21:36:37.850Z,25.36
2023-02-13T21:39:05.638Z,25.55
2023-02-13T21:41:35.567Z,25.55
2023-02-13T21:44:03.287Z,25.54
2023-02-13T21:46:32.641Z,25.34
2023-02-13T21:49:02.019Z,25.35
2023-02-13T21:51:34.613Z,25.53
2023-02-13T21:54:02.346Z,25.36
2023-02-13T21:56:36.825Z,25.33
2023-02-13T21:59:05.919Z,25.53
2023-02-13T22:01:35.645Z,25.29
2023-02-13T22:04:03.765Z,25.39
2023-02-13T22:06:33.646Z,25.42
2023-02-13T22:09:01.914Z,25.48
2023-02-13T22:11:29.572Z,25.50
2023-02-13T22:13:58.617Z,25.38
2023-02-13T22:16:27.688Z,25.61
2023-02-13T22:18:56.602Z,25.48
2023-02-13T22:21:24.600Z,25.41
2023-02-13T22:23:56.504Z,25.63
2023-02-13T22:26:24.706Z,25.37
2023-02-13T22:28:53.375Z,25.47
2023-02-13T22:31:24.153Z,25.49
2023-02-13T22:34:04.459Z,25.75
2023-02-13T22:36:32.648Z,25.52
2023-02-13T22:39:01.629Z,25.53
2023-02-13T22:41:29.318Z,25.57
2023-02-13T22:43:57.008Z,25.55
2023-02-13T22:46:26.081Z,25.63
2023-02-13T22:48:57.325Z,25.39
2023-02-13T22:51:26.227Z,25.66
2023-02-13T22:53:54.261Z,25.41
2023-02-13T22:56:22.168Z,25.50
2023-02-13T22:58:50.563Z,25.51
2023-02-13T23:01:18.588Z,25.39
2023-02-13T23:03:46.642Z,25.45
2023-02-13T23:06:16.644Z,25.46
2023-02-13T23:08:44.309Z,25.60
2023-02-13T23:11:31.532Z,25.56
2023-02-13T23:13:59.240Z,25.48
2023-02-13T23:16:27.723Z,25.38
2023-02-13T23:18:54.585Z,25.54
2023-02-13T23:21:23.987Z,25.42
2023-02-13T23:23:51.798Z,25.44
2023-02-13T23:26:19.583Z,25.44
2023-02-13T23:28:47.322Z,25.46
2023-02-13T23:31:15.154Z,25.43
2023-02-13T23:33:42.873Z,25.40
2023-02-13T23:36:10.791Z,25.36
2023-02-13T23:38:39.884Z,25.31
2023-02-13T23:41:07.991Z,25.51
2023-02-13T23:43:35.640Z,25.44
2023-02-13T23:46:03.953Z,25.58
2023-02-13T23:48:32.183Z,25.33
2023-02-13T23:51:00.200Z,25.48
2023-02-13T23:53:28.219Z,25.59
2023-02-13T23:55:57.219Z,25.63
2023-02-13T23:58:24.856Z,25.45
